createdAt,value
2023-03-30T00:02:06.551Z,15.70
2023-03-30T00:04:37.477Z,15.70
2023-03-30T00:07:06.645Z,15.60
2023-03-30T00:09:34.374Z,15.80
2023-03-30T00:12:03.419Z,15.80
2023-03-30T00:14:31.135Z,15.80
2023-03-30T00:16:58.957Z,15.70
2023-03-30T00:19:26.669Z,15.70
2023-03-30T00:21:54.475Z,15.60
2023-03-30T00:24:23.971Z,15.70
2023-03-30T00:26:52.061Z,15.70
2023-03-30T00:29:19.769Z,15.80
2023-03-30T00:31:47.554Z,15.80
2023-03-30T00:34:15.513Z,15.80
2023-03-30T00:36:43.238Z,15.80
2023-03-30T00:39:10.996Z,15.80
2023-03-30T00:41:40.877Z,15.70
2023-03-30T00:44:29.765Z,15.30
2023-03-30T00:46:59.480Z,15.40
2023-03-30T00:49:27.326Z,15.60
2023-03-30T00:51:55.916Z,15.60
2023-03-30T00:54:23.719Z,15.60
2023-03-30T00:56:52.954Z,15.60
2023-03-30T00:59:21.030Z,15.60
2023-03-30T01:01:50.253Z,15.70
2023-03-30T01:04:18.806Z,15.90
2023-03-30T01:06:47.788Z,16.00
2023-03-30T01:09:17.434Z,16.10
2023-03-30T01:11:45.901Z,15.90
2023-03-30T01:14:16.143Z,15.90
2023-03-30T01:16:51.480Z,16.00
2023-03-30T01:19:43.626Z,16.00
2023-03-30T01:22:30.741Z,15.90
2023-03-30T01:25:27.302Z,15.90
2023-03-30T01:28:19.816Z,15.90
2023-03-30T01:31:20.982Z,15.80
2023-03-30T01:34:14.474Z,15.70
2023-03-30T01:37:34.573Z,15.70
2023-03-30T01:40:10.856Z,15.70
2023-03-30T01:42:43.500Z,15.50
2023-03-30T01:45:16.813Z,15.50
2023-03-30T01:47:54.183Z,15.60
2023-03-30T01:50:26.611Z,15.60
2023-03-30T01:52:59.884Z,15.70
2023-03-30T01:55:34.649Z,15.80
2023-03-30T01:58:07.122Z,15.70
2023-03-30T02:00:38.097Z,15.80
2023-03-30T02:03:11.386Z,15.80
2023-03-30T02:05:40.313Z,15.90
2023-03-30T02:08:11.409Z,15.90
2023-03-30T02:10:42.021Z,15.70
2023-03-30T02:13:09.934Z,15.80
2023-03-30T02:15:42.004Z,15.50
2023-03-30T02:18:10.851Z,15.40
2023-03-30T02:20:39.007Z,15.50
2023-03-30T02:23:08.307Z,15.70
2023-03-30T02:25:38.533Z,15.70
2023-03-30T02:28:08.547Z,15.70
2023-03-30T02:30:39.817Z,15.60
2023-03-30T02:33:11.195Z,15.70
2023-03-30T02:35:51.755Z,15.50
2023-03-30T02:38:38.044Z,15.50
2023-03-30T02:41:17.308Z,15.70
2023-03-30T02:43:58.036Z,15.90
2023-03-30T02:46:53.754Z,15.70
2023-03-30T02:49:31.905Z,15.70
2023-03-30T02:52:08.234Z,15.80
2023-03-30T02:54:48.071Z,15.90
2023-03-30T02:57:24.264Z,15.60
2023-03-30T02:59:58.978Z,15.60
2023-03-30T03:02:32.116Z,15.40
2023-03-30T03:05:03.834Z,15.50
2023-03-30T03:07:33.736Z,15.50
2023-03-30T03:10:01.634Z,15.50
2023-03-30T03:12:29.737Z,15.60
2023-03-30T03:14:58.980Z,15.70
2023-03-30T03:17:29.551Z,15.80
2023-03-30T03:19:57.307Z,15.90
2023-03-30T03:22:25.045Z,16.00
2023-03-30T03:24:52.961Z,15.90
2023-03-30T03:27:21.019Z,15.90
2023-03-30T03:29:49.441Z,16.00
2023-03-30T03:32:18.509Z,16.00
2023-03-30T03:34:46.223Z,16.10
2023-03-30T03:37:14.132Z,16.30
2023-03-30T03:39:41.824Z,16.40
2023-03-30T03:42:09.969Z,16.30
2023-03-30T03:44:38.177Z,16.40
2023-03-30T03:47:06.558Z,16.30
2023-03-30T03:49:35.986Z,16.20
2023-03-30T03:52:03.721Z,16.20
2023-03-30T03:54:31.397Z,16.30
2023-03-30T03:56:59.185Z,16.30
2023-03-30T03:59:26.907Z,16.50
2023-03-30T04:01:54.828Z,16.50
2023-03-30T04:04:22.553Z,16.50
2023-03-30T04:06:51.610Z,16.50
2023-03-30T04:09:21.293Z,16.40
2023-03-30T04:11:49.390Z,16.50
2023-03-30T04:14:17.223Z,16.60
2023-03-30T04:16:44.927Z,16.50
2023-03-30T04:19:13.171Z,16.60
2023-03-30T04:21:46.783Z,16.60
2023-03-30T04:24:15.869Z,16.60
2023-03-30T04:26:48.722Z,16.40
2023-03-30T04:29:17.820Z,16.20
2023-03-30T04:31:46.999Z,16.20
2023-03-30T04:34:15.117Z,16.20
2023-03-30T04:36:44.170Z,16.00
2023-03-30T04:39:12.124Z,16.00
2023-03-30T04:41:41.834Z,16.00
2023-03-30T04:44:10.964Z,16.10
2023-03-30T04:46:39.674Z,16.30
2023-03-30T04:49:07.615Z,16.30
2023-03-30T04:51:35.616Z,16.30
2023-03-30T04:54:03.315Z,16.30
2023-03-30T04:56:31.165Z,16.50
2023-03-30T04:59:00.476Z,16.60
2023-03-30T05:01:28.379Z,16.80
2023-03-30T05:03:56.219Z,16.80
2023-03-30T05:06:23.962Z,16.60
2023-03-30T05:08:51.669Z,16.60
2023-03-30T05:11:19.426Z,16.40
2023-03-30T05:13:47.253Z,16.50
2023-03-30T05:16:16.451Z,16.60
2023-03-30T05:18:44.579Z,16.60
2023-03-30T05:21:12.561Z,16.70
2023-03-30T05:23:40.919Z,16.80
2023-03-30T05:26:09.093Z,16.80
2023-03-30T05:28:36.897Z,16.60
2023-03-30T05:31:04.815Z,16.80
2023-03-30T05:33:34.139Z,16.70
2023-03-30T05:36:01.904Z,16.50
2023-03-30T05:38:29.748Z,16.70
2023-03-30T05:40:58.157Z,16.90
2023-03-30T05:43:26.099Z,16.70
2023-03-30T05:45:53.985Z,16.90
2023-03-30T05:48:21.684Z,16.90
2023-03-30T05:50:50.747Z,16.90
2023-03-30T05:53:18.636Z,16.90
2023-03-30T05:55:47.021Z,16.80
2023-03-30T05:58:15.202Z,16.80
2023-03-30T06:00:43.966Z,16.90
2023-03-30T06:03:12.971Z,16.80
2023-03-30T06:05:46.175Z,16.70
2023-03-30T06:08:15.280Z,16.60
2023-03-30T06:10:42.997Z,16.50
2023-03-30T06:13:10.944Z,16.60
2023-03-30T06:15:38.700Z,16.70
2023-03-30T06:18:07.116Z,16.80
2023-03-30T06:20:34.834Z,17.10
2023-03-30T06:23:02.663Z,17.10
2023-03-30T06:25:31.754Z,17.20
2023-03-30T06:27:59.519Z,17.30
2023-03-30T06:30:27.276Z,17.50
2023-03-30T06:32:55.283Z,17.40
2023-03-30T06:35:23.156Z,17.50
2023-03-30T06:37:50.888Z,17.70
2023-03-30T06:40:19.022Z,17.60
2023-03-30T06:42:48.100Z,17.50
2023-03-30T06:45:16.350Z,17.40
2023-03-30T06:47:44.158Z,17.20
2023-03-30T06:50:13.335Z,17.30
2023-03-30T06:52:41.080Z,17.50
2023-03-30T06:55:09.418Z,17.70
2023-03-30T06:57:37.205Z,17.70
2023-03-30T07:00:13.194Z,17.60
2023-03-30T07:02:41.431Z,17.80
2023-03-30T07:05:10.001Z,18.00
2023-03-30T07:07:38.200Z,18.40
2023-03-30T07:10:10.255Z,18.60
2023-03-30T07:12:38.083Z,18.30
2023-03-30T07:15:08.764Z,18.30
2023-03-30T07:17:37.199Z,18.40
2023-03-30T07:20:08.073Z,18.10
2023-03-30T07:22:36.344Z,18.20
2023-03-30T07:25:04.984Z,18.10
2023-03-30T07:27:32.826Z,18.00
2023-03-30T07:30:10.281Z,18.10
2023-03-30T07:32:43.314Z,18.10
2023-03-30T07:35:11.136Z,18.30
2023-03-30T07:37:39.986Z,18.10
2023-03-30T07:40:10.003Z,17.90
2023-03-30T07:42:38.017Z,17.70
2023-03-30T07:45:06.855Z,17.60
2023-03-30T07:47:34.642Z,17.50
2023-03-30T07:50:03.790Z,17.80
2023-03-30T07:52:32.206Z,17.70
2023-03-30T07:54:59.918Z,17.90
2023-03-30T07:57:28.443Z,18.00
2023-03-30T07:59:56.566Z,17.90
2023-03-30T08:02:24.411Z,17.90
2023-03-30T08:04:52.820Z,17.80
2023-03-30T08:07:22.329Z,17.80
2023-03-30T08:09:50.037Z,17.90
2023-03-30T08:12:17.777Z,18.10
2023-03-30T08:14:46.089Z,18.20
2023-03-30T08:17:13.825Z,18.10
2023-03-30T08:19:42.879Z,18.00
2023-03-30T08:22:10.915Z,17.80
2023-03-30T08:24:40.050Z,17.60
2023-03-30T08:27:08.156Z,17.50
2023-03-30T08:29:44.769Z,17.70
2023-03-30T08:32:12.442Z,17.70
2023-03-30T08:34:40.582Z,17.70
2023-03-30T08:37:08.385Z,17.60
2023-03-30T08:39:36.217Z,17.70
2023-03-30T08:42:14.619Z,17.70
2023-03-30T08:44:44.507Z,17.80
2023-03-30T08:47:14.806Z,17.90
2023-03-30T08:49:45.978Z,17.80
2023-03-30T08:52:20.209Z,17.90
2023-03-30T08:54:48.619Z,17.90
2023-03-30T08:57:29.229Z,17.90
2023-03-30T09:00:06.220Z,17.90
2023-03-30T09:02:38.455Z,18.10
2023-03-30T09:05:15.372Z,18.00
2023-03-30T09:07:51.425Z,18.00
2023-03-30T09:10:21.760Z,18.00
2023-03-30T09:12:53.450Z,17.80
2023-03-30T09:15:28.477Z,17.70
2023-03-30T09:18:02.538Z,18.00
2023-03-30T09:20:32.412Z,18.10
2023-03-30T09:23:02.004Z,18.10
2023-03-30T09:25:35.491Z,18.10
2023-03-30T09:28:11.862Z,18.10
2023-03-30T09:30:41.980Z,18.20
2023-03-30T09:33:21.080Z,18.40
2023-03-30T09:36:06.859Z,18.50
2023-03-30T09:38:38.009Z,18.40
2023-03-30T09:41:20.041Z,18.40
2023-03-30T09:43:50.817Z,18.40
2023-03-30T09:46:18.907Z,18.50
2023-03-30T09:48:48.116Z,18.30
2023-03-30T09:51:19.274Z,18.40
2023-03-30T09:53:48.472Z,18.30
2023-03-30T09:56:22.247Z,18.30
2023-03-30T09:58:51.293Z,18.50
2023-03-30T10:01:20.946Z,18.60
2023-03-30T10:04:07.920Z,18.90
2023-03-30T10:06:39.861Z,19.00
2023-03-30T10:09:13.007Z,19.10
2023-03-30T10:11:44.200Z,19.00
2023-03-30T10:14:28.948Z,19.00
2023-03-30T10:16:57.501Z,19.10
2023-03-30T10:19:25.730Z,19.40
2023-03-30T10:21:58.772Z,19.40
2023-03-30T10:24:28.140Z,19.40
2023-03-30T10:26:58.007Z,19.50
2023-03-30T10:29:30.293Z,19.60
2023-03-30T10:32:02.632Z,19.40
2023-03-30T10:34:37.233Z,19.40
2023-03-30T10:37:11.784Z,19.50
2023-03-30T10:39:41.841Z,19.70
2023-03-30T10:42:15.898Z,19.40
2023-03-30T10:44:50.631Z,19.40
2023-03-30T10:47:33.953Z,19.40
2023-03-30T10:50:09.913Z,19.40
2023-03-30T10:52:56.264Z,19.20
2023-03-30T10:55:32.781Z,19.20
2023-03-30T10:58:08.290Z,19.40
2023-03-30T11:00:56.227Z,19.40
2023-03-30T11:03:27.187Z,19.20
2023-03-30T11:06:00.170Z,19.30
2023-03-30T11:08:31.320Z,19.50
2023-03-30T11:11:01.185Z,19.60
2023-03-30T11:13:34.264Z,19.60
2023-03-30T11:16:06.459Z,19.50
2023-03-30T11:18:41.250Z,19.40
2023-03-30T11:21:15.753Z,19.20
2023-03-30T11:23:49.937Z,19.40
2023-03-30T11:26:22.316Z,19.70
2023-03-30T11:28:57.949Z,20.10
2023-03-30T11:31:46.943Z,20.10
2023-03-30T11:34:24.340Z,19.50
2023-03-30T11:37:00.273Z,18.90
2023-03-30T11:39:33.053Z,17.90
2023-03-30T11:42:14.538Z,17.20
2023-03-30T11:44:42.623Z,16.70
2023-03-30T11:47:29.322Z,16.70
2023-03-30T11:50:13.385Z,16.20
2023-03-30T11:52:47.964Z,16.20
2023-03-30T11:55:29.758Z,16.30
2023-03-30T11:58:10.272Z,16.10
2023-03-30T12:00:58.409Z,15.70
2023-03-30T12:03:39.965Z,15.40
2023-03-30T12:06:30.997Z,15.40
2023-03-30T12:09:14.619Z,15.50
2023-03-30T12:11:48.079Z,15.50
2023-03-30T12:14:40.684Z,15.70
2023-03-30T12:17:16.671Z,15.80
2023-03-30T12:19:56.507Z,15.70
2023-03-30T12:22:30.310Z,16.00
2023-03-30T12:25:03.591Z,16.20
2023-03-30T12:27:36.696Z,16.10
2023-03-30T12:30:15.233Z,16.00
2023-03-30T12:33:00.460Z,16.10
2023-03-30T12:35:55.602Z,16.20
2023-03-30T12:38:25.574Z,16.20
2023-03-30T12:41:14.556Z,16.20
2023-03-30T12:44:06.451Z,16.10
2023-03-30T12:46:41.877Z,15.90
2023-03-30T12:49:17.798Z,15.90
2023-03-30T12:51:58.009Z,16.20
2023-03-30T12:54:51.019Z,16.30
2023-03-30T12:57:43.357Z,16.20
2023-03-30T13:00:36.281Z,16.40
2023-03-30T13:03:21.751Z,16.30
2023-03-30T13:05:55.068Z,16.30
2023-03-30T13:08:32.339Z,16.20
2023-03-30T13:11:18.879Z,16.30
2023-03-30T13:13:53.476Z,16.40
2023-03-30T13:16:47.673Z,16.50
2023-03-30T13:19:23.234Z,16.70
2023-03-30T13:21:57.170Z,16.80
2023-03-30T13:24:37.931Z,16.80
2023-03-30T13:27:22.492Z,16.80
2023-03-30T13:29:54.608Z,16.70
2023-03-30T13:32:31.333Z,16.30
2023-03-30T13:35:17.512Z,16.20
2023-03-30T13:37:59.524Z,16.30
2023-03-30T13:40:40.180Z,16.50
2023-03-30T13:43:20.978Z,16.90
2023-03-30T13:46:05.543Z,17.00
2023-03-30T13:48:56.599Z,17.00
2023-03-30T13:51:27.311Z,17.20
2023-03-30T13:53:59.052Z,17.10
2023-03-30T13:56:32.437Z,17.00
2023-03-30T13:59:06.044Z,17.30
2023-03-30T14:01:34.728Z,17.50
2023-03-30T14:04:03.751Z,17.40
2023-03-30T14:06:35.290Z,17.30
2023-03-30T14:09:12.314Z,17.30
2023-03-30T14:11:45.560Z,17.40
2023-03-30T14:14:19.100Z,17.30
2023-03-30T14:16:47.043Z,17.20
2023-03-30T14:19:23.799Z,17.20
2023-03-30T14:21:55.498Z,17.20
2023-03-30T14:24:29.766Z,17.30
2023-03-30T14:27:03.794Z,17.40
2023-03-30T14:29:32.298Z,17.30
2023-03-30T14:32:09.006Z,17.30
2023-03-30T14:34:37.725Z,17.70
2023-03-30T14:37:08.213Z,17.80
2023-03-30T14:39:41.061Z,17.90
2023-03-30T14:42:17.631Z,17.90
2023-03-30T14:44:48.189Z,18.00
2023-03-30T14:47:16.857Z,18.00
2023-03-30T14:49:47.448Z,18.10
2023-03-30T14:52:18.833Z,18.20
2023-03-30T14:55:04.212Z,18.30
2023-03-30T14:57:39.688Z,18.20
2023-03-30T15:00:18.051Z,17.80
2023-03-30T15:02:46.883Z,17.60
2023-03-30T15:05:18.268Z,17.50
2023-03-30T15:07:49.120Z,17.90
2023-03-30T15:10:26.521Z,17.90
2023-03-30T15:12:57.917Z,17.70
2023-03-30T15:15:29.803Z,17.60
2023-03-30T15:17:58.110Z,17.30
2023-03-30T15:20:27.980Z,17.40
2023-03-30T15:22:56.711Z,17.20
2023-03-30T15:25:31.280Z,16.60
2023-03-30T15:28:04.116Z,16.50
2023-03-30T15:30:35.385Z,16.50
2023-03-30T15:33:03.274Z,16.40
2023-03-30T15:35:33.075Z,16.40
2023-03-30T15:38:02.205Z,16.00
2023-03-30T15:40:34.297Z,16.20
2023-03-30T15:43:21.014Z,16.20
2023-03-30T15:45:52.086Z,16.10
2023-03-30T15:48:23.379Z,16.00
2023-03-30T15:50:55.882Z,16.10
2023-03-30T15:53:37.041Z,16.00
2023-03-30T15:56:06.376Z,16.10
2023-03-30T15:58:35.804Z,15.90
2023-03-30T16:01:04.938Z,15.80
2023-03-30T16:03:36.076Z,15.90
2023-03-30T16:06:03.855Z,15.80
2023-03-30T16:08:31.570Z,15.90
2023-03-30T16:10:59.645Z,15.80
2023-03-30T16:13:27.432Z,15.70
2023-03-30T16:15:57.574Z,15.30
2023-03-30T16:18:25.480Z,15.10
2023-03-30T16:20:53.237Z,14.90
2023-03-30T16:23:20.970Z,14.70
2023-03-30T16:25:48.704Z,14.70
2023-03-30T16:28:18.257Z,14.70
2023-03-30T16:30:47.886Z,14.90
2023-03-30T16:33:16.968Z,15.00
2023-03-30T16:35:44.838Z,15.10
2023-03-30T16:38:14.478Z,15.30
2023-03-30T16:40:44.640Z,15.20
2023-03-30T16:43:12.575Z,14.90
2023-03-30T16:45:40.546Z,14.90
2023-03-30T16:48:08.373Z,14.80
2023-03-30T16:50:39.597Z,14.70
2023-03-30T16:53:08.729Z,14.60
2023-03-30T16:55:37.582Z,14.70
2023-03-30T16:58:05.570Z,14.70
2023-03-30T17:00:36.922Z,14.60
2023-03-30T17:03:07.771Z,14.70
2023-03-30T17:05:37.228Z,14.60
2023-03-30T17:08:06.365Z,14.60
2023-03-30T17:10:37.073Z,14.50
2023-03-30T17:13:04.782Z,14.60
2023-03-30T17:15:35.057Z,14.60
2023-03-30T17:18:05.959Z,14.60
2023-03-30T17:20:39.733Z,14.50
2023-03-30T17:23:10.154Z,14.60
2023-03-30T17:25:39.888Z,14.60
2023-03-30T17:28:09.385Z,14.50
2023-03-30T17:30:40.161Z,14.40
2023-03-30T17:33:10.501Z,14.70
2023-03-30T17:35:40.378Z,14.80
2023-03-30T17:38:09.439Z,14.80
2023-03-30T17:40:39.017Z,14.50
2023-03-30T17:43:07.447Z,14.50
2023-03-30T17:45:37.019Z,14.60
2023-03-30T17:48:06.495Z,14.60
2023-03-30T17:50:35.604Z,14.70
2023-03-30T17:53:04.875Z,14.70
2023-03-30T17:55:34.246Z,14.70
2023-03-30T17:58:01.938Z,14.60
2023-03-30T18:00:32.241Z,14.60
2023-03-30T18:03:01.455Z,14.80
2023-03-30T18:05:31.957Z,14.90
2023-03-30T18:07:59.812Z,14.90
2023-03-30T18:10:35.609Z,14.90
2023-03-30T18:13:04.098Z,15.00
2023-03-30T18:15:32.356Z,15.10
2023-03-30T18:18:02.244Z,15.10
2023-03-30T18:20:33.350Z,15.10
2023-03-30T18:23:01.704Z,15.00
2023-03-30T18:25:32.686Z,14.90
2023-03-30T18:28:01.269Z,15.00
2023-03-30T18:30:31.018Z,15.00
2023-03-30T18:32:58.999Z,15.00
2023-03-30T18:35:28.721Z,15.00
2023-03-30T18:37:56.872Z,14.90
2023-03-30T18:40:26.831Z,14.90
2023-03-30T18:42:56.295Z,14.80
2023-03-30T18:45:26.827Z,14.60
2023-03-30T18:47:55.069Z,14.30
2023-03-30T18:50:25.302Z,14.30
2023-03-30T18:52:53.061Z,14.60
2023-03-30T18:55:21.195Z,14.60
2023-03-30T18:57:49.701Z,14.50
2023-03-30T19:00:21.731Z,14.50
2023-03-30T19:02:50.938Z,14.40
2023-03-30T19:05:20.959Z,14.30
2023-03-30T19:07:49.303Z,14.40
2023-03-30T19:10:18.744Z,14.40
2023-03-30T19:12:48.964Z,14.50
2023-03-30T19:15:24.469Z,14.40
2023-03-30T19:17:52.965Z,14.50
2023-03-30T19:20:22.458Z,14.60
2023-03-30T19:22:50.610Z,14.60
2023-03-30T19:25:19.981Z,14.70
2023-03-30T19:28:02.007Z,14.30
2023-03-30T19:30:34.187Z,14.20
2023-03-30T19:33:04.863Z,14.30
2023-03-30T19:35:33.260Z,14.20
2023-03-30T19:38:01.057Z,14.10
2023-03-30T19:40:28.826Z,14.30
2023-03-30T19:42:56.636Z,14.40
2023-03-30T19:45:24.843Z,14.40
2023-03-30T19:47:53.983Z,14.40
2023-03-30T19:50:24.794Z,14.20
2023-03-30T19:52:54.358Z,14.20
2023-03-30T19:55:23.054Z,14.10
2023-03-30T19:57:50.904Z,13.90
2023-03-30T20:00:19.633Z,13.80
2023-03-30T20:02:49.799Z,13.90
2023-03-30T20:05:20.993Z,14.00
2023-03-30T20:07:49.501Z,13.90
2023-03-30T20:10:20.184Z,13.80
2023-03-30T20:12:48.499Z,13.60
2023-03-30T20:15:17.535Z,13.80
2023-03-30T20:17:45.567Z,14.00
2023-03-30T20:20:16.975Z,14.20
2023-03-30T20:22:46.635Z,14.10
2023-03-30T20:25:16.596Z,13.90
2023-03-30T20:27:44.375Z,14.00
2023-03-30T20:30:13.489Z,14.10
2023-03-30T20:32:41.295Z,13.90
2023-03-30T20:35:09.746Z,13.90
2023-03-30T20:37:37.528Z,13.80
2023-03-30T20:40:22.052Z,13.90
2023-03-30T20:42:49.777Z,14.10
2023-03-30T20:45:50.802Z,14.30
2023-03-30T20:48:27.243Z,14.20
2023-03-30T20:50:55.963Z,14.00
2023-03-30T20:53:28.860Z,14.00
2023-03-30T20:55:58.672Z,14.00
2023-03-30T20:58:29.072Z,14.10
2023-03-30T21:00:59.878Z,13.80
2023-03-30T21:10:23.863Z,13.80
2023-03-30T21:12:52.949Z,13.90
2023-03-30T21:15:20.929Z,14.10
2023-03-30T21:17:48.713Z,14.20
2023-03-30T21:20:16.718Z,14.10
2023-03-30T21:22:45.487Z,13.80
2023-03-30T21:25:13.986Z,13.70
2023-03-30T21:27:41.779Z,13.90
2023-03-30T21:30:13.385Z,14.20
2023-03-30T21:32:41.286Z,14.20
2023-03-30T21:35:09.502Z,14.20
2023-03-30T21:37:50.751Z,14.40
2023-03-30T21:43:05.404Z,14.20
2023-03-30T21:45:37.518Z,14.20
2023-03-30T21:48:05.393Z,14.30
2023-03-30T21:50:33.175Z,14.40
2023-03-30T21:53:21.312Z,14.40
2023-03-30T21:55:49.422Z,14.40
2023-03-30T21:58:19.018Z,14.30
2023-03-30T22:00:58.388Z,14.40
2023-03-30T22:03:54.282Z,14.30
2023-03-30T22:06:22.991Z,14.50
2023-03-30T22:08:51.720Z,14.10
2023-03-30T22:11:21.545Z,14.00
2023-03-30T22:13:50.113Z,14.20
2023-03-30T22:16:22.220Z,14.10
2023-03-30T22:18:50.772Z,14.20
2023-03-30T22:21:20.496Z,14.40
2023-03-30T22:23:48.818Z,14.50
2023-03-30T22:26:17.170Z,14.50
2023-03-30T22:28:45.337Z,14.40
2023-03-30T22:31:15.340Z,14.20
2023-03-30T22:34:21.520Z,14.20
2023-03-30T22:36:49.227Z,14.30
2023-03-30T22:39:17.232Z,14.20
2023-03-30T22:41:44.967Z,14.20
2023-03-30T22:44:12.702Z,14.20
2023-03-30T22:46:40.648Z,14.00
2023-03-30T22:49:08.338Z,14.00
2023-03-30T22:51:38.010Z,14.00
2023-03-30T22:54:06.180Z,13.90
2023-03-30T22:56:33.945Z,14.00
2023-03-30T22:59:01.884Z,14.20
2023-03-30T23:01:32.016Z,14.20
2023-03-30T23:04:00.289Z,14.10
2023-03-30T23:06:28.140Z,14.20
2023-03-30T23:08:57.217Z,14.30
2023-03-30T23:11:26.280Z,14.20
2023-03-30T23:13:54.333Z,14.30
2023-03-30T23:16:22.557Z,14.40
2023-03-30T23:18:51.047Z,14.40
2023-03-30T23:21:22.040Z,14.30
2023-03-30T23:23:49.824Z,14.40
2023-03-30T23:26:19.436Z,14.40
2023-03-30T23:28:47.207Z,14.30
2023-03-30T23:31:17.412Z,14.20
2023-03-30T23:33:45.446Z,14.30
2023-03-30T23:36:14.157Z,14.20
2023-03-30T23:38:42.000Z,14.20
2023-03-30T23:41:11.734Z,14.30
2023-03-30T23:43:41.098Z,14.20
2023-03-30T23:46:09.803Z,14.40
2023-03-30T23:48:37.799Z,14.40
2023-03-30T23:51:06.229Z,14.30
2023-03-30T23:53:34.084Z,14.20
2023-03-30T23:56:06.277Z,14.30
2023-03-30T23:58:34.426Z,14.40
